Pagina principale
METAR-TAF:

METAR-TAF

Aeroporti :

Monte Malanotte

Prato Nevoso, Italia

latitudine: 44-15N, longitudine: 007-48E, altezza: 1741 m

Osservazione

Il bollettino è stato emesso 1 ora e 15 minuti fa, alle 07:55 UTC
Vento 6 kt da sud-est
Temperature 16°C
Umidità 94%
Pressione 1004 hPa
Visibilità: 7000 m
Nuvoloso ad un'altezza di 1800 ft

METAR: LIMY 070755Z 14006KT 7000 BKN018 16/15 Q1004 RMK BKN SCT070 VAL FOSCHIA VIS MIN 7000

Ora: 11:10 (09:10 UTC)


TAF: mancante

Osservazioni e previsioni meteorologiche di più di 4000 aeroporti (messaggi METAR e TAF).

Le stazioni disponibili sono rappresentate dai dischi gialli e rossi sulla carta.

Puntare il mouse per vedere il nome della stazione.

Clicca sopra per visualizzare le osservazioni e previsioni meteorologiche.

Per cambiare la mappa : fare clic sui pulsanti verdi con una croce nera per ingrandire, il pulsante verde con un trattino per diminuire, o sulla freccia verde per le mappe adiacenti.


METAR-TAF: